sensor_id;sensor_type;location;lat;lon;timestamp;pressure;altitude;pressure_sealevel;temperature;humidity
21824;BME280;11074;48.596;9.238;2023-08-06T00:00:09;97483.50;;;18.03;96.08
21824;BME280;11074;48.596;9.238;2023-08-06T00:02:35;97471.41;;;18.00;96.02
21824;BME280;11074;48.596;9.238;2023-08-06T00:05:00;97473.25;;;17.66;96.80
21824;BME280;11074;48.596;9.238;2023-08-06T00:07:26;97469.81;;;17.43;98.23
21824;BME280;11074;48.596;9.238;2023-08-06T00:09:52;97472.81;;;17.41;98.35
21824;BME280;11074;48.596;9.238;2023-08-06T00:12:18;97461.97;;;17.24;98.86
21824;BME280;11074;48.596;9.238;2023-08-06T00:14:43;97463.53;;;17.25;98.77
21824;BME280;11074;48.596;9.238;2023-08-06T00:17:09;97465.34;;;17.38;98.16
21824;BME280;11074;48.596;9.238;2023-08-06T00:19:35;97465.13;;;17.26;98.15
21824;BME280;11074;48.596;9.238;2023-08-06T00:22:01;97456.09;;;17.31;98.70
21824;BME280;11074;48.596;9.238;2023-08-06T00:24:27;97458.66;;;17.36;97.19
21824;BME280;11074;48.596;9.238;2023-08-06T00:26:53;97455.66;;;17.37;97.21
21824;BME280;11074;48.596;9.238;2023-08-06T00:29:19;97449.34;;;17.59;96.65
21824;BME280;11074;48.596;9.238;2023-08-06T00:31:45;97445.22;;;17.53;96.74
21824;BME280;11074;48.596;9.238;2023-08-06T00:34:10;97459.50;;;17.45;97.72
21824;BME280;11074;48.596;9.238;2023-08-06T00:36:36;97469.78;;;17.82;96.37
21824;BME280;11074;48.596;9.238;2023-08-06T00:39:02;97468.53;;;17.97;95.06
21824;BME280;11074;48.596;9.238;2023-08-06T00:41:28;97462.63;;;17.86;95.42
21824;BME280;11074;48.596;9.238;2023-08-06T00:43:54;97458.97;;;17.82;95.62
21824;BME280;11074;48.596;9.238;2023-08-06T00:46:20;97452.06;;;17.59;95.21
21824;BME280;11074;48.596;9.238;2023-08-06T00:48:46;97456.34;;;17.12;95.33
21824;BME280;11074;48.596;9.238;2023-08-06T00:51:13;97447.66;;;16.93;96.26
21824;BME280;11074;48.596;9.238;2023-08-06T00:53:39;97448.31;;;16.98;96.08
21824;BME280;11074;48.596;9.238;2023-08-06T00:56:07;97438.94;;;16.65;97.57
21824;BME280;11074;48.596;9.238;2023-08-06T00:58:36;97444.81;;;16.89;96.13
21824;BME280;11074;48.596;9.238;2023-08-06T01:01:02;97439.41;;;16.89;95.91
21824;BME280;11074;48.596;9.238;2023-08-06T01:03:28;97439.25;;;16.94;95.45
21824;BME280;11074;48.596;9.238;2023-08-06T01:05:55;97442.59;;;16.91;94.90
21824;BME280;11074;48.596;9.238;2023-08-06T01:08:54;97447.13;;;16.82;95.48
21824;BME280;11074;48.596;9.238;2023-08-06T01:11:46;97442.31;;;17.02;95.50
21824;BME280;11074;48.596;9.238;2023-08-06T01:14:30;97448.03;;;17.09;95.06
21824;BME280;11074;48.596;9.238;2023-08-06T01:16:58;97448.31;;;16.98;94.62
21824;BME280;11074;48.596;9.238;2023-08-06T01:19:24;97444.38;;;17.05;94.61
21824;BME280;11074;48.596;9.238;2023-08-06T01:21:50;97442.81;;;17.12;93.95
21824;BME280;11074;48.596;9.238;2023-08-06T01:24:16;97437.59;;;17.16;93.60
21824;BME280;11074;48.596;9.238;2023-08-06T01:29:35;97441.69;;;17.05;94.10
21824;BME280;11074;48.596;9.238;2023-08-06T01:32:09;97437.97;;;16.92;94.80
21824;BME280;11074;48.596;9.238;2023-08-06T01:34:39;97447.72;;;17.02;94.21
21824;BME280;11074;48.596;9.238;2023-08-06T01:37:06;97443.69;;;16.90;94.40
21824;BME280;11074;48.596;9.238;2023-08-06T01:39:36;97433.88;;;16.94;94.86
21824;BME280;11074;48.596;9.238;2023-08-06T01:42:02;97429.66;;;16.80;95.19
21824;BME280;11074;48.596;9.238;2023-08-06T01:44:27;97430.25;;;16.77;94.87
21824;BME280;11074;48.596;9.238;2023-08-06T01:46:53;97431.69;;;16.74;96.09
21824;BME280;11074;48.596;9.238;2023-08-06T01:49:19;97428.22;;;16.74;96.61
21824;BME280;11074;48.596;9.238;2023-08-06T01:51:44;97419.53;;;16.63;95.99
21824;BME280;11074;48.596;9.238;2023-08-06T01:54:10;97428.03;;;16.70;96.32
21824;BME280;11074;48.596;9.238;2023-08-06T01:56:36;97417.09;;;16.53;96.30
21824;BME280;11074;48.596;9.238;2023-08-06T01:59:02;97415.09;;;16.59;96.85
21824;BME280;11074;48.596;9.238;2023-08-06T02:01:27;97413.38;;;16.63;95.82
21824;BME280;11074;48.596;9.238;2023-08-06T02:03:53;97414.78;;;16.91;95.18
21824;BME280;11074;48.596;9.238;2023-08-06T02:06:19;97403.13;;;16.73;94.36
21824;BME280;11074;48.596;9.238;2023-08-06T02:08:45;97395.09;;;16.60;94.91
21824;BME280;11074;48.596;9.238;2023-08-06T02:11:10;97397.72;;;16.51;94.43
21824;BME280;11074;48.596;9.238;2023-08-06T02:13:36;97394.75;;;16.83;95.46
21824;BME280;11074;48.596;9.238;2023-08-06T02:16:01;97385.41;;;16.98;94.16
21824;BME280;11074;48.596;9.238;2023-08-06T02:18:27;97375.75;;;16.97;93.50
21824;BME280;11074;48.596;9.238;2023-08-06T02:20:59;97383.88;;;17.06;92.60
21824;BME280;11074;48.596;9.238;2023-08-06T02:23:26;97379.56;;;17.05;92.07
21824;BME280;11074;48.596;9.238;2023-08-06T02:26:04;97374.13;;;16.96;92.05
21824;BME280;11074;48.596;9.238;2023-08-06T02:28:31;97368.41;;;16.89;91.59
21824;BME280;11074;48.596;9.238;2023-08-06T02:30:57;97366.50;;;16.89;91.92
21824;BME280;11074;48.596;9.238;2023-08-06T02:33:23;97363.44;;;16.74;91.70
21824;BME280;11074;48.596;9.238;2023-08-06T02:35:49;97365.81;;;16.75;92.19
21824;BME280;11074;48.596;9.238;2023-08-06T02:38:14;97370.53;;;16.48;91.05
21824;BME280;11074;48.596;9.238;2023-08-06T02:40:46;97361.63;;;16.38;91.72
21824;BME280;11074;48.596;9.238;2023-08-06T02:43:13;97357.56;;;16.27;92.38
21824;BME280;11074;48.596;9.238;2023-08-06T02:45:39;97360.69;;;16.43;93.61
21824;BME280;11074;48.596;9.238;2023-08-06T02:48:05;97357.03;;;16.39;93.76
21824;BME280;11074;48.596;9.238;2023-08-06T02:50:30;97347.66;;;16.45;93.30
21824;BME280;11074;48.596;9.238;2023-08-06T02:52:56;97352.59;;;16.43;91.89
21824;BME280;11074;48.596;9.238;2023-08-06T02:55:22;97352.50;;;16.26;92.96
21824;BME280;11074;48.596;9.238;2023-08-06T02:57:47;97344.63;;;16.07;92.98
21824;BME280;11074;48.596;9.238;2023-08-06T03:00:13;97347.50;;;15.89;94.66
21824;BME280;11074;48.596;9.238;2023-08-06T03:02:39;97339.63;;;15.78;94.57
21824;BME280;11074;48.596;9.238;2023-08-06T03:05:05;97338.59;;;15.88;94.60
21824;BME280;11074;48.596;9.238;2023-08-06T03:07:31;97332.66;;;15.77;94.74
21824;BME280;11074;48.596;9.238;2023-08-06T03:09:59;97339.75;;;15.73;95.84
21824;BME280;11074;48.596;9.238;2023-08-06T03:12:27;97341.34;;;15.74;94.45
21824;BME280;11074;48.596;9.238;2023-08-06T03:14:52;97330.50;;;15.66;94.20
21824;BME280;11074;48.596;9.238;2023-08-06T03:17:18;97330.50;;;15.66;96.67
21824;BME280;11074;48.596;9.238;2023-08-06T03:19:44;97327.97;;;15.47;96.84
21824;BME280;11074;48.596;9.238;2023-08-06T03:22:09;97331.47;;;15.48;96.88
21824;BME280;11074;48.596;9.238;2023-08-06T03:24:35;97328.03;;;15.56;96.40
21824;BME280;11074;48.596;9.238;2023-08-06T03:27:01;97330.81;;;15.64;96.24
21824;BME280;11074;48.596;9.238;2023-08-06T03:29:27;97331.78;;;15.68;95.08
21824;BME280;11074;48.596;9.238;2023-08-06T03:31:52;97332.22;;;15.62;95.46
21824;BME280;11074;48.596;9.238;2023-08-06T03:34:18;97327.47;;;15.67;95.43
21824;BME280;11074;48.596;9.238;2023-08-06T03:36:44;97330.41;;;15.57;95.58
21824;BME280;11074;48.596;9.238;2023-08-06T03:39:09;97321.31;;;15.67;95.59
21824;BME280;11074;48.596;9.238;2023-08-06T03:41:35;97327.41;;;15.72;95.75
21824;BME280;11074;48.596;9.238;2023-08-06T03:44:01;97336.00;;;15.61;95.06
21824;BME280;11074;48.596;9.238;2023-08-06T03:46:29;97339.53;;;15.48;96.30
21824;BME280;11074;48.596;9.238;2023-08-06T03:48:55;97332.88;;;15.67;95.80
21824;BME280;11074;48.596;9.238;2023-08-06T03:51:22;97331.47;;;15.92;95.52
21824;BME280;11074;48.596;9.238;2023-08-06T03:53:48;97326.91;;;15.93;94.91
21824;BME280;11074;48.596;9.238;2023-08-06T03:56:13;97326.53;;;15.86;94.02
21824;BME280;11074;48.596;9.238;2023-08-06T03:58:39;97324.56;;;15.77;94.55
21824;BME280;11074;48.596;9.238;2023-08-06T04:01:04;97321.69;;;15.74;94.86
21824;BME280;11074;48.596;9.238;2023-08-06T04:03:30;97324.06;;;15.98;95.77
21824;BME280;11074;48.596;9.238;2023-08-06T04:05:56;97321.13;;;16.08;94.15
21824;BME280;11074;48.596;9.238;2023-08-06T04:08:21;97322.91;;;15.90;94.29
21824;BME280;11074;48.596;9.238;2023-08-06T04:10:53;97311.19;;;15.95;94.44
21824;BME280;11074;48.596;9.238;2023-08-06T04:13:19;97311.47;;;15.85;95.46
21824;BME280;11074;48.596;9.238;2023-08-06T04:15:45;97312.06;;;15.82;94.81
21824;BME280;11074;48.596;9.238;2023-08-06T04:18:11;97319.00;;;15.74;94.58
21824;BME280;11074;48.596;9.238;2023-08-06T04:20:45;97322.53;;;15.61;97.03
21824;BME280;11074;48.596;9.238;2023-08-06T04:23:11;97321.13;;;15.63;97.30
21824;BME280;11074;48.596;9.238;2023-08-06T04:25:37;97316.78;;;15.98;96.85
21824;BME280;11074;48.596;9.238;2023-08-06T04:28:03;97315.84;;;16.25;95.51
21824;BME280;11074;48.596;9.238;2023-08-06T04:30:28;97314.81;;;16.43;94.17
21824;BME280;11074;48.596;9.238;2023-08-06T04:32:56;97313.50;;;16.32;92.99
21824;BME280;11074;48.596;9.238;2023-08-06T04:35:22;97322.84;;;16.57;93.23
21824;BME280;11074;48.596;9.238;2023-08-06T04:37:47;97321.56;;;16.54;92.25
21824;BME280;11074;48.596;9.238;2023-08-06T04:40:13;97330.47;;;16.55;91.22
21824;BME280;11074;48.596;9.238;2023-08-06T04:42:39;97336.41;;;16.43;91.23
21824;BME280;11074;48.596;9.238;2023-08-06T04:45:05;97325.00;;;16.46;91.25
21824;BME280;11074;48.596;9.238;2023-08-06T04:47:31;97335.97;;;16.50;91.30
21824;BME280;11074;48.596;9.238;2023-08-06T04:49:56;97342.88;;;16.42;90.86
21824;BME280;11074;48.596;9.238;2023-08-06T04:52:22;97345.56;;;16.33;91.29
21824;BME280;11074;48.596;9.238;2023-08-06T04:54:48;97340.69;;;16.44;91.72
21824;BME280;11074;48.596;9.238;2023-08-06T04:57:13;97346.72;;;16.41;90.79
21824;BME280;11074;48.596;9.238;2023-08-06T04:59:39;97338.47;;;16.46;90.68
21824;BME280;11074;48.596;9.238;2023-08-06T05:02:05;97343.75;;;16.51;90.95
21824;BME280;11074;48.596;9.238;2023-08-06T05:04:30;97344.84;;;16.50;91.10
21824;BME280;11074;48.596;9.238;2023-08-06T05:06:56;97349.13;;;16.20;91.93
21824;BME280;11074;48.596;9.238;2023-08-06T05:09:22;97346.59;;;16.24;91.67
21824;BME280;11074;48.596;9.238;2023-08-06T05:11:49;97350.09;;;16.24;92.31
21824;BME280;11074;48.596;9.238;2023-08-06T05:14:14;97344.72;;;16.24;91.68
21824;BME280;11074;48.596;9.238;2023-08-06T05:16:40;97343.91;;;16.24;92.06
21824;BME280;11074;48.596;9.238;2023-08-06T05:19:06;97340.16;;;16.33;92.27
21824;BME280;11074;48.596;9.238;2023-08-06T05:21:31;97338.63;;;16.19;91.07
21824;BME280;11074;48.596;9.238;2023-08-06T05:23:57;97335.53;;;16.34;91.92
21824;BME280;11074;48.596;9.238;2023-08-06T05:26:22;97340.03;;;16.38;91.17
21824;BME280;11074;48.596;9.238;2023-08-06T05:28:48;97339.38;;;16.33;90.43
21824;BME280;11074;48.596;9.238;2023-08-06T05:31:14;97340.94;;;16.34;89.79
21824;BME280;11074;48.596;9.238;2023-08-06T05:33:39;97344.34;;;16.48;90.25
21824;BME280;11074;48.596;9.238;2023-08-06T05:36:05;97347.47;;;16.55;89.53
21824;BME280;11074;48.596;9.238;2023-08-06T05:38:31;97345.28;;;16.66;88.81
21824;BME280;11074;48.596;9.238;2023-08-06T05:40:56;97345.81;;;16.85;87.84
21824;BME280;11074;48.596;9.238;2023-08-06T05:43:22;97346.53;;;17.08;86.97
21824;BME280;11074;48.596;9.238;2023-08-06T05:45:51;97346.50;;;16.99;85.55
21824;BME280;11074;48.596;9.238;2023-08-06T05:48:17;97344.63;;;17.08;86.02
21824;BME280;11074;48.596;9.238;2023-08-06T05:50:43;97363.22;;;17.10;85.29
21824;BME280;11074;48.596;9.238;2023-08-06T05:53:09;97353.19;;;17.02;85.00
21824;BME280;11074;48.596;9.238;2023-08-06T05:55:35;97357.28;;;16.90;85.76
21824;BME280;11074;48.596;9.238;2023-08-06T05:58:01;97361.47;;;17.05;85.94
21824;BME280;11074;48.596;9.238;2023-08-06T06:00:26;97361.00;;;17.03;84.26
21824;BME280;11074;48.596;9.238;2023-08-06T06:02:52;97368.00;;;17.13;84.61
21824;BME280;11074;48.596;9.238;2023-08-06T06:05:18;97371.47;;;17.05;84.70
21824;BME280;11074;48.596;9.238;2023-08-06T06:07:43;97376.88;;;17.05;84.67
21824;BME280;11074;48.596;9.238;2023-08-06T06:10:09;97375.06;;;16.91;85.11
21824;BME280;11074;48.596;9.238;2023-08-06T06:12:35;97383.78;;;16.88;85.77
21824;BME280;11074;48.596;9.238;2023-08-06T06:15:01;97380.63;;;16.86;85.97
21824;BME280;11074;48.596;9.238;2023-08-06T06:17:28;97374.59;;;16.89;87.15
21824;BME280;11074;48.596;9.238;2023-08-06T06:19:54;97379.34;;;16.84;87.51
21824;BME280;11074;48.596;9.238;2023-08-06T06:22:20;97387.72;;;16.82;87.53
21824;BME280;11074;48.596;9.238;2023-08-06T06:24:45;97382.44;;;16.69;87.79
21824;BME280;11074;48.596;9.238;2023-08-06T06:27:11;97394.47;;;16.63;88.33
21824;BME280;11074;48.596;9.238;2023-08-06T06:29:36;97383.97;;;16.61;88.30
21824;BME280;11074;48.596;9.238;2023-08-06T06:32:02;97393.41;;;16.72;87.81
21824;BME280;11074;48.596;9.238;2023-08-06T06:34:28;97399.81;;;16.54;88.49
21824;BME280;11074;48.596;9.238;2023-08-06T06:36:53;97401.22;;;16.74;88.48
21824;BME280;11074;48.596;9.238;2023-08-06T06:39:20;97399.69;;;16.59;88.81
21824;BME280;11074;48.596;9.238;2023-08-06T06:41:46;97388.50;;;16.74;88.63
21824;BME280;11074;48.596;9.238;2023-08-06T06:44:13;97399.03;;;16.84;87.12
21824;BME280;11074;48.596;9.238;2023-08-06T06:46:38;97406.63;;;16.82;86.82
21824;BME280;11074;48.596;9.238;2023-08-06T06:49:04;97405.00;;;16.73;86.22
21824;BME280;11074;48.596;9.238;2023-08-06T06:51:30;97399.03;;;16.84;87.01
21824;BME280;11074;48.596;9.238;2023-08-06T06:53:57;97406.38;;;16.92;86.39
21824;BME280;11074;48.596;9.238;2023-08-06T06:56:23;97407.97;;;16.93;86.49
21824;BME280;11074;48.596;9.238;2023-08-06T06:58:48;97409.09;;;16.92;86.61
21824;BME280;11074;48.596;9.238;2023-08-06T07:01:14;97415.59;;;16.91;86.65
21824;BME280;11074;48.596;9.238;2023-08-06T07:03:40;97408.06;;;16.80;86.67
21824;BME280;11074;48.596;9.238;2023-08-06T07:06:06;97414.19;;;16.72;87.60
21824;BME280;11074;48.596;9.238;2023-08-06T07:08:33;97407.44;;;16.83;87.87
21824;BME280;11074;48.596;9.238;2023-08-06T07:11:03;97413.53;;;16.97;87.65
21824;BME280;11074;48.596;9.238;2023-08-06T07:13:29;97407.09;;;16.76;88.62
21824;BME280;11074;48.596;9.238;2023-08-06T07:15:56;97415.00;;;16.72;88.61
21824;BME280;11074;48.596;9.238;2023-08-06T07:18:22;97412.78;;;16.74;89.73
21824;BME280;11074;48.596;9.238;2023-08-06T07:20:53;97412.84;;;16.83;89.63
21824;BME280;11074;48.596;9.238;2023-08-06T07:23:22;97408.53;;;16.82;88.75
21824;BME280;11074;48.596;9.238;2023-08-06T07:25:48;97413.50;;;16.88;89.21
21824;BME280;11074;48.596;9.238;2023-08-06T07:28:15;97411.66;;;16.98;89.18
21824;BME280;11074;48.596;9.238;2023-08-06T07:30:42;97413.06;;;17.04;88.70
21824;BME280;11074;48.596;9.238;2023-08-06T07:33:08;97412.41;;;16.98;88.77
21824;BME280;11074;48.596;9.238;2023-08-06T07:35:35;97417.13;;;16.84;88.97
21824;BME280;11074;48.596;9.238;2023-08-06T07:38:01;97413.03;;;16.86;89.68
21824;BME280;11074;48.596;9.238;2023-08-06T07:40:27;97419.22;;;16.95;89.48
21824;BME280;11074;48.596;9.238;2023-08-06T07:42:53;97415.41;;;16.88;89.28
21824;BME280;11074;48.596;9.238;2023-08-06T07:45:19;97414.59;;;16.87;90.22
21824;BME280;11074;48.596;9.238;2023-08-06T07:47:44;97412.59;;;17.02;89.66
21824;BME280;11074;48.596;9.238;2023-08-06T07:50:10;97411.19;;;17.04;89.63
21824;BME280;11074;48.596;9.238;2023-08-06T07:52:36;97414.88;;;17.17;89.61
21824;BME280;11074;48.596;9.238;2023-08-06T07:55:02;97413.25;;;17.07;89.51
21824;BME280;11074;48.596;9.238;2023-08-06T07:57:33;97415.00;;;17.03;89.32
21824;BME280;11074;48.596;9.238;2023-08-06T08:00:00;97421.16;;;16.95;88.89
21824;BME280;11074;48.596;9.238;2023-08-06T08:02:27;97418.31;;;17.00;89.10
21824;BME280;11074;48.596;9.238;2023-08-06T08:04:52;97417.72;;;17.12;88.83
21824;BME280;11074;48.596;9.238;2023-08-06T08:07:18;97418.84;;;17.19;88.92
21824;BME280;11074;48.596;9.238;2023-08-06T08:09:45;97414.28;;;17.28;88.53
21824;BME280;11074;48.596;9.238;2023-08-06T08:12:10;97413.47;;;17.28;87.13
21824;BME280;11074;48.596;9.238;2023-08-06T08:14:36;97415.63;;;17.09;88.45
21824;BME280;11074;48.596;9.238;2023-08-06T08:17:05;97414.09;;;17.25;87.32
21824;BME280;11074;48.596;9.238;2023-08-06T08:19:32;97412.38;;;17.29;86.48
21824;BME280;11074;48.596;9.238;2023-08-06T08:21:58;97413.97;;;17.30;87.42
21824;BME280;11074;48.596;9.238;2023-08-06T08:24:24;97420.19;;;17.39;87.45
21824;BME280;11074;48.596;9.238;2023-08-06T08:26:51;97419.41;;;17.47;86.84
21824;BME280;11074;48.596;9.238;2023-08-06T08:29:19;97411.94;;;17.44;86.13
21824;BME280;11074;48.596;9.238;2023-08-06T08:31:45;97422.59;;;17.49;86.03
21824;BME280;11074;48.596;9.238;2023-08-06T08:34:10;97426.91;;;17.02;87.43
21824;BME280;11074;48.596;9.238;2023-08-06T08:36:36;97427.28;;;17.18;87.99
21824;BME280;11074;48.596;9.238;2023-08-06T08:39:02;97426.84;;;17.33;88.10
21824;BME280;11074;48.596;9.238;2023-08-06T08:41:31;97416.97;;;17.28;88.01
21824;BME280;11074;48.596;9.238;2023-08-06T08:43:58;97424.00;;;17.38;88.19
21824;BME280;11074;48.596;9.238;2023-08-06T08:46:29;97424.66;;;17.35;87.71
21824;BME280;11074;48.596;9.238;2023-08-06T08:48:58;97415.75;;;17.34;87.53
21824;BME280;11074;48.596;9.238;2023-08-06T08:51:28;97425.41;;;17.35;88.38
21824;BME280;11074;48.596;9.238;2023-08-06T08:53:56;97433.53;;;17.27;89.08
21824;BME280;11074;48.596;9.238;2023-08-06T08:56:23;97434.47;;;17.31;88.42
21824;BME280;11074;48.596;9.238;2023-08-06T08:58:50;97429.25;;;17.34;87.89
21824;BME280;11074;48.596;9.238;2023-08-06T09:01:20;97428.41;;;17.25;87.01
21824;BME280;11074;48.596;9.238;2023-08-06T09:03:47;97429.28;;;17.04;87.58
21824;BME280;11074;48.596;9.238;2023-08-06T09:06:15;97437.56;;;17.07;88.24
21824;BME280;11074;48.596;9.238;2023-08-06T09:08:56;97431.59;;;17.19;88.78
21824;BME280;11074;48.596;9.238;2023-08-06T09:11:26;97437.88;;;17.06;88.55
21824;BME280;11074;48.596;9.238;2023-08-06T09:13:54;97438.94;;;17.27;88.48
21824;BME280;11074;48.596;9.238;2023-08-06T09:16:21;97450.03;;;17.25;88.62
21824;BME280;11074;48.596;9.238;2023-08-06T09:18:46;97440.97;;;17.30;88.88
21824;BME280;11074;48.596;9.238;2023-08-06T09:21:15;97443.19;;;17.28;89.13
21824;BME280;11074;48.596;9.238;2023-08-06T09:23:43;97444.63;;;17.25;88.36
21824;BME280;11074;48.596;9.238;2023-08-06T09:26:12;97437.22;;;17.39;88.82
21824;BME280;11074;48.596;9.238;2023-08-06T09:28:39;97445.72;;;17.55;88.60
21824;BME280;11074;48.596;9.238;2023-08-06T09:31:08;97447.63;;;17.63;87.88
21824;BME280;11074;48.596;9.238;2023-08-06T09:33:37;97443.00;;;17.55;88.03
21824;BME280;11074;48.596;9.238;2023-08-06T09:36:13;97443.31;;;17.62;88.05
21824;BME280;11074;48.596;9.238;2023-08-06T09:38:40;97439.06;;;17.70;88.06
21824;BME280;11074;48.596;9.238;2023-08-06T09:41:07;97440.97;;;17.69;87.76
21824;BME280;11074;48.596;9.238;2023-08-06T09:43:45;97435.72;;;17.73;87.77
21824;BME280;11074;48.596;9.238;2023-08-06T09:46:14;97437.00;;;17.75;86.97
21824;BME280;11074;48.596;9.238;2023-08-06T09:48:46;97444.41;;;17.52;87.10
21824;BME280;11074;48.596;9.238;2023-08-06T09:51:14;97438.41;;;17.55;87.78
21824;BME280;11074;48.596;9.238;2023-08-06T09:53:41;97449.94;;;17.47;88.12
21824;BME280;11074;48.596;9.238;2023-08-06T09:56:11;97441.41;;;17.54;87.90
21824;BME280;11074;48.596;9.238;2023-08-06T09:58:39;97449.34;;;17.50;87.82
21824;BME280;11074;48.596;9.238;2023-08-06T10:01:06;97459.34;;;17.50;88.08
21824;BME280;11074;48.596;9.238;2023-08-06T10:03:33;97461.16;;;17.63;87.95
21824;BME280;11074;48.596;9.238;2023-08-06T10:05:59;97460.97;;;17.60;88.29
21824;BME280;11074;48.596;9.238;2023-08-06T10:08:27;97450.97;;;17.60;87.86
21824;BME280;11074;48.596;9.238;2023-08-06T10:10:53;97458.34;;;17.46;89.00
21824;BME280;11074;48.596;9.238;2023-08-06T10:13:21;97455.03;;;17.40;89.54
21824;BME280;11074;48.596;9.238;2023-08-06T10:15:48;97461.81;;;17.38;90.02
21824;BME280;11074;48.596;9.238;2023-08-06T10:18:16;97468.94;;;17.25;90.35
21824;BME280;11074;48.596;9.238;2023-08-06T10:20:46;97464.47;;;17.21;89.85
21824;BME280;11074;48.596;9.238;2023-08-06T10:23:12;97469.25;;;17.24;90.39
21824;BME280;11074;48.596;9.238;2023-08-06T10:25:43;97463.25;;;17.27;90.11
21824;BME280;11074;48.596;9.238;2023-08-06T10:28:10;97464.00;;;17.27;90.22
21824;BME280;11074;48.596;9.238;2023-08-06T10:30:45;97469.13;;;17.29;90.66
21824;BME280;11074;48.596;9.238;2023-08-06T10:33:11;97470.63;;;17.13;92.35
21824;BME280;11074;48.596;9.238;2023-08-06T10:35:48;97476.59;;;17.32;92.24
21824;BME280;11074;48.596;9.238;2023-08-06T10:38:17;97476.13;;;17.38;91.54
21824;BME280;11074;48.596;9.238;2023-08-06T10:43:47;97483.47;;;17.46;90.86
21824;BME280;11074;48.596;9.238;2023-08-06T10:46:23;97477.94;;;17.43;91.64
21824;BME280;11074;48.596;9.238;2023-08-06T10:48:49;97485.94;;;17.26;92.81
21824;BME280;11074;48.596;9.238;2023-08-06T10:51:15;97494.25;;;17.38;92.50
21824;BME280;11074;48.596;9.238;2023-08-06T10:53:48;97492.44;;;17.16;93.52
21824;BME280;11074;48.596;9.238;2023-08-06T10:56:17;97490.03;;;17.15;93.23
21824;BME280;11074;48.596;9.238;2023-08-06T10:58:47;97486.44;;;17.28;92.80
21824;BME280;11074;48.596;9.238;2023-08-06T11:01:13;97486.72;;;17.18;92.98
21824;BME280;11074;48.596;9.238;2023-08-06T11:03:42;97491.25;;;17.09;94.16
21824;BME280;11074;48.596;9.238;2023-08-06T11:06:10;97490.66;;;17.12;94.19
21824;BME280;11074;48.596;9.238;2023-08-06T11:08:38;97496.28;;;17.24;93.46
21824;BME280;11074;48.596;9.238;2023-08-06T11:11:12;97495.28;;;17.20;93.11
21824;BME280;11074;48.596;9.238;2023-08-06T11:13:40;97491.16;;;17.22;93.05
21824;BME280;11074;48.596;9.238;2023-08-06T11:16:06;97494.53;;;17.28;93.28
21824;BME280;11074;48.596;9.238;2023-08-06T11:18:33;97505.72;;;17.35;92.99
21824;BME280;11074;48.596;9.238;2023-08-06T11:21:00;97498.31;;;17.18;93.69
21824;BME280;11074;48.596;9.238;2023-08-06T11:23:29;97503.53;;;17.15;94.16
21824;BME280;11074;48.596;9.238;2023-08-06T11:25:57;97515.19;;;17.24;93.76
21824;BME280;11074;48.596;9.238;2023-08-06T11:28:24;97506.59;;;17.22;94.51
21824;BME280;11074;48.596;9.238;2023-08-06T11:30:50;97510.88;;;17.23;94.82
21824;BME280;11074;48.596;9.238;2023-08-06T11:33:23;97512.97;;;17.26;95.04
21824;BME280;11074;48.596;9.238;2023-08-06T11:35:51;97518.66;;;17.16;93.25
21824;BME280;11074;48.596;9.238;2023-08-06T11:38:17;97514.91;;;17.34;93.55
21824;BME280;11074;48.596;9.238;2023-08-06T11:40:45;97522.75;;;17.44;93.01
21824;BME280;11074;48.596;9.238;2023-08-06T11:43:12;97529.38;;;17.38;93.41
21824;BME280;11074;48.596;9.238;2023-08-06T11:45:38;97533.72;;;17.47;93.00
21824;BME280;11074;48.596;9.238;2023-08-06T11:48:04;97532.13;;;17.46;92.55
21824;BME280;11074;48.596;9.238;2023-08-06T11:50:30;97526.34;;;17.31;92.76
21824;BME280;11074;48.596;9.238;2023-08-06T11:52:58;97531.56;;;17.27;94.07
21824;BME280;11074;48.596;9.238;2023-08-06T11:55:25;97532.06;;;17.29;93.49
21824;BME280;11074;48.596;9.238;2023-08-06T11:57:51;97536.13;;;17.18;93.76
21824;BME280;11074;48.596;9.238;2023-08-06T12:00:18;97535.81;;;17.20;94.05
21824;BME280;11074;48.596;9.238;2023-08-06T12:02:46;97538.63;;;17.37;93.10
21824;BME280;11074;48.596;9.238;2023-08-06T12:05:31;97545.72;;;17.55;91.75
21824;BME280;11074;48.596;9.238;2023-08-06T12:08:00;97541.78;;;17.61;91.00
21824;BME280;11074;48.596;9.238;2023-08-06T12:10:29;97541.66;;;17.75;90.88
21824;BME280;11074;48.596;9.238;2023-08-06T12:12:55;97555.69;;;17.85;89.16
21824;BME280;11074;48.596;9.238;2023-08-06T12:15:23;97557.13;;;17.83;88.14
21824;BME280;11074;48.596;9.238;2023-08-06T12:17:50;97553.78;;;17.94;88.61
21824;BME280;11074;48.596;9.238;2023-08-06T12:20:16;97561.09;;;17.94;88.15
21824;BME280;11074;48.596;9.238;2023-08-06T12:22:42;97587.50;;;17.80;88.88
21824;BME280;11074;48.596;9.238;2023-08-06T12:25:11;97581.41;;;17.74;87.76
21824;BME280;11074;48.596;9.238;2023-08-06T12:27:40;97570.59;;;17.74;88.87
21824;BME280;11074;48.596;9.238;2023-08-06T12:30:07;97583.97;;;17.79;87.24
21824;BME280;11074;48.596;9.238;2023-08-06T12:32:34;97582.22;;;17.83;87.31
21824;BME280;11074;48.596;9.238;2023-08-06T12:35:00;97582.75;;;17.94;86.21
21824;BME280;11074;48.596;9.238;2023-08-06T12:37:27;97582.88;;;17.89;86.15
21824;BME280;11074;48.596;9.238;2023-08-06T12:39:52;97589.94;;;17.98;85.63
21824;BME280;11074;48.596;9.238;2023-08-06T12:42:18;97586.91;;;18.00;83.33
21824;BME280;11074;48.596;9.238;2023-08-06T12:44:44;97592.00;;;17.93;83.41
21824;BME280;11074;48.596;9.238;2023-08-06T12:47:10;97589.44;;;17.96;85.29
21824;BME280;11074;48.596;9.238;2023-08-06T12:49:36;97604.25;;;17.99;83.30
21824;BME280;11074;48.596;9.238;2023-08-06T12:52:02;97604.75;;;18.01;80.80
21824;BME280;11074;48.596;9.238;2023-08-06T12:54:30;97608.53;;;18.00;82.68
21824;BME280;11074;48.596;9.238;2023-08-06T12:57:03;97604.75;;;18.01;83.89
21824;BME280;11074;48.596;9.238;2023-08-06T12:59:28;97604.56;;;17.97;81.37
21824;BME280;11074;48.596;9.238;2023-08-06T13:01:54;97606.31;;;17.93;80.08
21824;BME280;11074;48.596;9.238;2023-08-06T13:04:20;97609.50;;;17.95;82.99